EW9528 Weather Reports


Display with metric or nautical units.
time (UTC)temp
F
wind
direction
speed
MPH
gust
MPH
rain 1hr
in
rain 24hr
in
rain mn
in
humidity
%
barometer
mb
20210624083510 75 202 0.0 0.0 0.00 0.00 0.00 34 1019.2
20210624082609 75 184 4.0 5.0 0.00 0.00 0.00 35 1019.2
20210624081610 75 195 5.0 7.0 0.00 0.00 0.00 36 1019.2
20210624080610 76 188 6.0 8.0 0.00 0.00 0.00 35 1019.2
20210624075609 76 168 5.0 7.0 0.00 0.00 0.00 35 1019.1
20210624074610 77 185 6.0 9.0 0.00 0.00 0.00 35 1019.1
20210624073611 77 162 7.0 9.0 0.00 0.00 0.00 35 1018.9
20210624072609 77 166 5.0 9.0 0.00 0.00 0.00 33 1018.9
20210624071612 77 159 9.0 14.0 0.00 0.00 0.00 34 1018.9
20210624070610 77 176 4.0 6.0 0.00 0.00 0.00 36 1018.8
20210624065611 76 154 7.0 11.0 0.00 0.00 0.00 37 1018.9
20210624064612 76 129 2.0 4.0 0.00 0.00 0.00 39 1018.9
20210624063709 76 132 7.0 12.0 0.00 0.00 0.00 37 1018.9
20210624062709 76 123 6.0 9.0 0.00 0.00 0.00 38 1018.8
20210624061711 76 103 3.0 6.0 0.00 0.00 0.00 37 1018.7
20210624060808 76 99 6.0 9.0 0.00 0.00 0.00 36 1018.6
20210624055818 76 125 5.0 9.0 0.00 0.00 0.00 37 1018.8
20210624054915 76 127 8.0 14.0 0.00 0.00 0.00 36 1018.6
20210624053916 77 133 9.0 13.0 0.00 0.00 0.00 37 1018.6
20210624052917 77 156 4.0 7.0 0.00 0.00 0.00 35 1018.7
20210624052016 78 116 7.0 13.0 0.00 0.00 0.00 32 1018.6
20210624051016 78 127 4.0 7.0 0.00 0.00 0.00 31 1018.6
20210624050915 78 127 4.0 8.0 0.00 0.00 0.00 30 1018.6
20210624045916 79 7 2.0 4.0 0.00 0.00 0.00 25 1018.5
20210624045815 79 360 1.0 4.0 0.00 0.00 0.00 26 1018.4
20210624044818 80 199 3.0 6.0 0.00 0.00 0.00 25 1018.2
20210624043815 80 227 4.0 7.0 0.00 0.00 0.00 25 1018.1
20210624042818 80 223 5.0 11.0 0.00 0.00 0.00 25 1017.9
20210624041817 81 230 9.0 17.0 0.00 0.00 0.00 24 1017.8
20210624041716 81 227 5.0 11.0 0.00 0.00 0.00 24 1017.8
20210624040815 81 229 9.0 17.0 0.00 0.00 0.00 22 1017.3
20210624035833 82 226 8.0 18.0 0.00 0.00 0.00 21 1017.3
20210624034916 82 218 9.0 15.0 0.00 0.00 0.00 20 1016.9
20210624033918 82 228 7.0 12.0 0.00 0.00 0.00 20 1016.8
20210624032916 83 236 6.0 7.0 0.00 0.00 0.00 20 1016.7
20210624032016 83 192 9.0 13.0 0.00 0.00 0.00 20 1016.4
20210624031017 83 193 10.0 14.0 0.00 0.00 0.00 22 1016.2
20210624030916 83 182 10.0 16.0 0.00 0.00 0.00 22 1016.4
20210624025916 83 180 10.0 12.0 0.00 0.00 0.00 22 1016.2
20210624024919 84 180 18.0 24.0 0.00 0.00 0.00 20 1016.0
20210624023933 85 189 11.0 16.0 0.00 0.00 0.00 20 1015.7
20210624023018 85 166 8.0 12.0 0.00 0.00 0.00 19 1015.9
20210624022017 85 190 8.0 11.0 0.00 0.00 0.00 19 1015.8
20210624021017 86 182 9.0 14.0 0.00 0.00 0.00 20 1015.7
20210624020116 87 175 5.0 6.0 0.00 0.00 0.00 17 1015.7
20210624015116 87 176 6.0 9.0 0.00 0.00 0.00 17 1015.3
20210624015015 87 170 4.0 7.0 0.00 0.00 0.00 17 1015.3
20210624014017 86 172 5.0 7.0 0.00 0.00 0.00 18 1015.2
20210624013115 86 170 5.0 10.0 0.00 0.00 0.00 20 1015.2
20210624012117 86 165 6.0 9.0 0.00 0.00 0.00 20 1015.1
20210624012017 86 160 6.0 9.0 0.00 0.00 0.00 20 1015.1
20210624011017 86 112 1.0 3.0 0.00 0.00 0.00 22 1015.1
20210624010016 87 75 6.0 9.0 0.00 0.00 0.00 22 1015.0
20210624005115 87 88 3.0 5.0 0.00 0.00 0.00 21 1015.1
20210624004116 87 114 3.0 5.0 0.00 0.00 0.00 23 1015.1
20210624003116 88 121 5.0 8.0 0.00 0.00 0.00 20 1015.1
20210624002117 89 117 1.0 2.0 0.00 0.00 0.00 19 1015.1
20210624001215 89 108 4.0 6.0 0.00 0.00 0.00 19 1015.2
20210624001117 89 116 3.0 5.0 0.00 0.00 0.00 19 1015.2
20210624000118 89 128 4.0 5.0 0.00 0.00 0.00 19 1015.3
20210624000016 89 120 4.0 7.0 0.00 0.00 0.00 19 1015.2
20210623235115 88 120 4.0 8.0 0.00 0.00 0.00 22 1015.3
20210623234116 88 105 2.0 4.0 0.00 0.00 0.00 22 1015.4
20210623233215 88 115 4.0 6.0 0.00 0.00 0.00 19 1015.5
20210623232216 88 134 4.0 7.0 0.00 0.00 0.00 20 1015.5
20210623231217 88 136 3.0 6.0 0.00 0.00 0.00 20 1015.5
20210623230315 87 127 7.0 11.0 0.00 0.00 0.00 21 1015.6
20210623225316 87 123 5.0 7.0 0.00 0.00 0.00 20 1015.5
20210623224315 88 135 7.0 12.0 0.00 0.00 0.00 20 1015.7
20210623223317 87 163 4.0 6.0 0.00 0.00 0.00 20 1015.7
20210623222317 87 156 6.0 9.0 0.00 0.00 0.00 21 1015.8
20210623221415 88 138 5.0 9.0 0.00 0.00 0.00 22 1015.9
20210623220417 88 176 5.0 7.0 0.00 0.00 0.00 23 1016.0
20210623215416 88 128 8.0 13.0 0.00 0.00 0.00 21 1015.9
20210623214419 88 115 6.0 11.0 0.00 0.00 0.00 19 1016.2
20210623213417 88 131 7.0 14.0 0.00 0.00 0.00 18 1016.2
20210623212416 89 136 5.0 11.0 0.00 0.00 0.00 15 1016.3
20210623212316 89 134 6.0 9.0 0.00 0.00 0.00 15 1016.2
20210623211316 90 108 5.0 12.0 0.00 0.00 0.00 16 1016.4
20210623210415 90 135 4.0 7.0 0.00 0.00 0.00 15 1016.4
20210623205415 90 116 5.0 11.0 0.00 0.00 0.00 16 1016.4
20210623204432 90 126 8.0 11.0 0.00 0.00 0.00 14 1016.4
20210623203516 91 107 5.0 10.0 0.00 0.00 0.00 15 1016.6
20210623202532 90 110 6.0 9.0 0.00 0.00 0.00 15 1016.6
20210623201617 90 139 5.0 9.0 0.00 0.00 0.00 14 1016.7
20210623200616 89 124 6.0 11.0 0.00 0.00 0.00 17 1016.7
20210623195617 88 138 9.0 14.0 0.00 0.00 0.00 16 1016.8
20210623194616 88 134 7.0 11.0 0.00 0.00 0.00 16 1016.8
20210623193618 88 129 7.0 12.0 0.00 0.00 0.00 16 1016.9
20210623192635 88 127 8.0 12.0 0.00 0.00 0.00 18 1017.0
20210623191715 87 151 6.0 10.0 0.00 0.00 0.00 17 1017.1
20210623190718 87 115 7.0 12.0 0.00 0.00 0.00 17 1017.2
20210623185719 87 128 9.0 13.0 0.00 0.00 0.00 18 1017.2
20210623184815 87 136 8.0 12.0 0.00 0.00 0.00 19 1017.4
20210623183817 87 144 5.0 11.0 0.00 0.00 0.00 18 1017.5
20210623182818 86 89 3.0 5.0 0.00 0.00 0.00 18 1017.7
20210623181916 85 63 4.0 6.0 0.00 0.00 0.00 19 1017.8
20210623181015 86 159 6.0 8.0 0.00 0.00 0.00 17 1017.8
20210623180016 86 118 5.0 8.0 0.00 0.00 0.00 17 1017.9
20210623174115 85 109 5.0 8.0 0.00 0.00 0.00 17 1018.1
20210623173118 85 150 7.0 9.0 0.00 0.00 0.00 17 1018.1
20210623172116 85 149 4.0 7.0 0.00 0.00 0.00 17 1018.1
20210623171116 85 116 4.0 6.0 0.00 0.00 0.00 16 1018.2
20210623170215 84 148 4.0 6.0 0.00 0.00 0.00 16 1018.2
20210623165217 84 119 5.0 6.0 0.00 0.00 0.00 17 1018.3
20210623164216 84 137 4.0 5.0 0.00 0.00 0.00 17 1018.2
20210623163216 84 158 4.0 6.0 0.00 0.00 0.00 20 1018.3
20210623162217 82 112 3.0 5.0 0.00 0.00 0.00 23 1018.3
20210623161217 81 150 3.0 5.0 0.00 0.00 0.00 25 1018.4
20210623160215 80 157 3.0 5.0 0.00 0.00 0.00 27 1018.4
20210623155216 80 139 3.0 6.0 0.00 0.00 0.00 26 1018.5
20210623154216 80 135 4.0 6.0 0.00 0.00 0.00 28 1018.4
20210623154116 80 138 3.0 5.0 0.00 0.00 0.00 28 1018.5
20210623153118 79 112 1.0 4.0 0.00 0.00 0.00 27 1018.3
20210623152215 77 126 2.0 4.0 0.00 0.00 0.00 31 1018.3
20210623151219 76 229 2.0 3.0 0.00 0.00 0.00 33 1018.3
20210623150217 74 180 2.0 2.0 0.00 0.00 0.00 31 1018.4
20210623145218 74 292 1.0 2.0 0.00 0.00 0.00 29 1018.3
20210623144217 74 90 1.0 2.0 0.00 0.00 0.00 29 1018.2
20210623144116 74 90 0.0 1.0 0.00 0.00 0.00 28 1018.2
20210623143117 73 90 0.0 0.0 0.00 0.00 0.00 28 1018.1
20210623142117 73 90 0.0 1.0 0.00 0.00 0.00 29 1018.1
20210623141215 74 90 2.0 2.0 0.00 0.00 0.00 28 1017.8
20210623140217 74 106 2.0 3.0 0.00 0.00 0.00 27 1017.7
20210623135217 73 360 0.0 1.0 0.00 0.00 0.00 27 1017.8
20210623134218 72 292 0.0 0.0 0.00 0.00 0.00 27 1017.8
20210623133233 71 292 0.0 1.0 0.00 0.00 0.00 29 1017.7
20210623132316 72 360 0.0 0.0 0.00 0.00 0.00 25 1017.8
20210623131316 72 360 0.0 0.0 0.00 0.00 0.00 23 1017.6
20210623130317 72 360 1.0 1.0 0.00 0.00 0.00 22 1017.5
20210623125316 72 292 1.0 2.0 0.00 0.00 0.00 18 1017.5
20210623124416 70 315 3.0 4.0 0.00 0.00 0.00 20 1017.5
20210623123516 68 315 3.0 4.0 0.00 0.00 0.00 22 1017.3
20210623122516 67 292 1.0 2.0 0.00 0.00 0.00 23 1017.4
20210623121516 66 292 2.0 2.0 0.00 0.00 0.00 23 1017.2
20210623120517 65 292 1.0 1.0 0.00 0.00 0.00 25 1017.1
20210623115516 65 360 0.0 0.0 0.00 0.00 0.00 25 1017.1
20210623114516 64 360 0.0 1.0 0.00 0.00 0.00 25 1017.0
20210623113615 64 360 0.0 1.0 0.00 0.00 0.00 28 1016.9
20210623112616 65 360 0.0 1.0 0.00 0.00 0.00 26 1016.9
20210623111618 65 360 0.0 0.0 0.00 0.00 0.00 24 1016.7
20210623110617 65 337 1.0 2.0 0.00 0.00 0.00 25 1016.6
20210623105715 65 247 1.0 1.0 0.00 0.00 0.00 26 1016.6
20210623104717 66 247 2.0 3.0 0.00 0.00 0.00 29 1016.6
20210623103815 68 247 0.0 0.0 0.00 0.00 0.00 28 1016.6
20210623102816 71 247 1.0 2.0 0.00 0.00 0.00 24 1016.6
20210623101817 71 247 2.0 2.0 0.00 0.00 0.00 23 1016.4
20210623100817 71 247 0.0 1.0 0.00 0.00 0.00 22 1016.3
20210623095818 71 360 0.0 1.0 0.00 0.00 0.00 23 1016.2
20210623094816 73 35 2.0 3.0 0.00 0.00 0.00 20 1016.0
20210623093915 74 247 2.0 3.0 0.00 0.00 0.00 22 1015.8
20210623093818 74 247 2.0 4.0 0.00 0.00 0.00 22 1015.9
20210623092818 73 233 1.0 3.0 0.00 0.00 0.00 23 1015.8
20210623091819 73 236 4.0 6.0 0.00 0.00 0.00 24 1015.7
20210623090833 72 247 3.0 5.0 0.00 0.00 0.00 28 1015.6
20210623085916 72 270 2.0 3.0 0.00 0.00 0.00 30 1015.7
20210623084917 71 202 2.0 3.0 0.00 0.00 0.00 29 1015.6